Time;durP1;ratioP1;P1;durP2;ratioP2;P2;SDS_P1;SDS_P2;PMS_P1;PMS_P2;Temp;Humidity;BMP_temperature;BMP_pressure;BME280_temperature;BME280_humidity;BME280_pressure;Samples;Min_cycle;Max_cycle;Signal;HPM_P1;HPM_P2
2022/03/17 00:00:38;;;;;;;;;;;;;;;15.79;54.70;101494.81;1012832;29;1231;-74
2022/03/17 00:01:28;;;;;;;;;;;;;;;15.78;54.94;101499.34;1011889;29;1198;-74
2022/03/17 00:02:19;;;;;;;;;;;;;;;15.78;54.77;101496.66;1009578;29;654;-74
2022/03/17 00:03:09;;;;;;;;;;;;;;;15.78;54.87;101493.97;1010709;29;651;-74
2022/03/17 00:04:00;;;;;;;;;;;;;;;15.78;54.99;101490.41;1010744;29;649;-74
2022/03/17 00:04:50;;;;;;;;;;;;;;;15.78;54.62;101491.28;1009885;29;749;-74
2022/03/17 00:05:40;;;;;;;;;;;;;;;15.78;55.05;101493.09;1009743;29;2039;-74
2022/03/17 00:06:31;;;;;;;;;;;;;;;15.78;55.05;101487.72;1009690;29;647;-74
2022/03/17 00:07:21;;;;;;;;;;;;;;;15.79;54.89;101489.44;1009229;29;710;-73
2022/03/17 00:08:12;;;;;;;;;;;;;;;15.78;54.86;101493.09;1012306;29;1203;-74
2022/03/17 00:09:04;;;;;;;;;;;;;;;15.78;54.86;101487.72;1016671;29;659;-74
2022/03/17 00:09:54;;;;;;;;;;;;;;;15.77;55.07;101491.41;1016584;29;780;-73
2022/03/17 00:10:45;;;;;;;;;;;;;;;15.76;54.96;101490.56;1012745;29;671;-73
2022/03/17 00:11:35;;;;;;;;;;;;;;;15.77;54.87;101486.03;1013004;29;694;-73
2022/03/17 00:12:26;;;;;;;;;;;;;;;15.77;54.70;101486.03;1012772;29;636;-71
2022/03/17 00:13:16;;;;;;;;;;;;;;;15.77;54.81;101483.34;1013040;29;695;-71
2022/03/17 00:14:07;;;;;;;;;;;;;;;15.77;55.12;101486.03;1012820;29;692;-71
2022/03/17 00:14:57;;;;;;;;;;;;;;;15.77;55.19;101486.88;1012885;29;675;-71
2022/03/17 00:15:48;;;;;;;;;;;;;;;15.77;54.86;101483.34;1012845;29;650;-71
2022/03/17 00:16:38;;;;;;;;;;;;;;;15.77;55.24;101491.41;1013081;29;741;-71
2022/03/17 00:17:29;;;;;;;;;;;;;;;15.77;54.93;101488.72;1016431;29;663;-71
2022/03/17 00:18:19;;;;;;;;;;;;;;;15.76;54.67;101495.94;1017070;29;659;-71
2022/03/17 00:19:10;;;;;;;;;;;;;;;15.76;54.92;101495.09;1012835;29;690;-71
2022/03/17 00:20:00;;;;;;;;;;;;;;;15.76;54.86;101492.41;1012095;29;1604;-71
2022/03/17 00:20:50;;;;;;;;;;;;;;;15.76;55.32;101484.34;1009180;29;703;-71
2022/03/17 00:21:41;;;;;;;;;;;;;;;15.75;54.78;101482.63;1008273;29;726;-71
2022/03/17 00:22:31;;;;;;;;;;;;;;;15.75;54.67;101482.63;1009379;29;669;-74
2022/03/17 00:23:22;;;;;;;;;;;;;;;15.75;55.02;101485.31;1008962;29;695;-74
2022/03/17 00:24:13;;;;;;;;;;;;;;;15.76;55.21;101487.03;1009231;29;604;-74
2022/03/17 00:25:04;;;;;;;;;;;;;;;15.75;55.11;101488.00;1009613;29;689;-74
2022/03/17 00:25:54;;;;;;;;;;;;;;;15.77;55.22;101491.41;1009468;29;1907;-74
2022/03/17 00:26:45;;;;;;;;;;;;;;;15.75;55.08;101482.63;1009449;29;627;-74
2022/03/17 00:27:35;;;;;;;;;;;;;;;15.75;55.11;101488.84;1009527;29;865;-74
2022/03/17 00:28:26;;;;;;;;;;;;;;;15.75;55.03;101486.16;1012248;29;1612;-74
2022/03/17 00:29:19;;;;;;;;;;;;;;;15.75;55.03;101482.63;1013227;29;684;-75
2022/03/17 00:30:09;;;;;;;;;;;;;;;15.75;54.92;101485.31;1013103;29;714;-74
2022/03/17 00:30:59;;;;;;;;;;;;;;;15.73;54.98;101482.72;1013289;29;753;-74
2022/03/17 00:31:50;;;;;;;;;;;;;;;15.73;55.37;101479.19;1013261;29;715;-74
2022/03/17 00:32:40;;;;;;;;;;;;;;;15.74;55.08;101475.53;1013467;29;702;-74
2022/03/17 00:33:31;;;;;;;;;;;;;;;15.74;54.71;101483.59;1013274;29;687;-74
2022/03/17 00:34:21;;;;;;;;;;;;;;;15.74;54.82;101480.91;1012972;29;671;-74
2022/03/17 00:36:20;;;;;;;;;;;;;;;15.74;55.03;101483.59;1013926;29;692;-75
2022/03/17 00:37:11;;;;;;;;;;;;;;;15.74;55.14;101489.81;1013340;29;677;-72
2022/03/17 00:38:01;;;;;;;;;;;;;;;15.74;55.09;101494.34;1013439;29;647;-73
2022/03/17 00:38:52;;;;;;;;;;;;;;;15.73;55.33;101490.78;1013354;29;636;-73
2022/03/17 00:39:42;;;;;;;;;;;;;;;15.73;54.97;101500.69;1012268;29;1603;-73
2022/03/17 00:40:33;;;;;;;;;;;;;;;15.73;55.37;101498.00;1012792;29;632;-73
2022/03/17 00:41:23;;;;;;;;;;;;;;;15.73;55.05;101489.94;1013409;29;666;-73
2022/03/17 00:42:13;;;;;;;;;;;;;;;15.72;54.79;101497.16;1012624;29;671;-72
2022/03/17 00:43:04;;;;;;;;;;;;;;;15.73;55.06;101506.06;1013122;29;659;-72
2022/03/17 00:43:54;;;;;;;;;;;;;;;15.73;55.09;101506.91;1012547;29;657;-72
2022/03/17 00:44:46;;;;;;;;;;;;;;;15.74;55.10;101497.88;1012823;29;644;-72
2022/03/17 00:45:36;;;;;;;;;;;;;;;15.73;55.10;101498.84;1012661;29;1961;-73
2022/03/17 00:46:27;;;;;;;;;;;;;;;15.72;54.95;101494.47;1012795;29;710;-72
2022/03/17 00:47:17;;;;;;;;;;;;;;;15.73;55.38;101495.31;1013388;29;636;-73
2022/03/17 00:48:08;;;;;;;;;;;;;;;15.73;54.92;101498.00;1012708;29;642;-72
2022/03/17 00:48:58;;;;;;;;;;;;;;;15.72;55.23;101501.66;1012850;29;648;-72
2022/03/17 00:49:49;;;;;;;;;;;;;;;15.72;55.24;101510.59;1012680;29;620;-72
2022/03/17 00:50:39;;;;;;;;;;;;;;;15.72;55.23;101498.97;1012825;29;651;-72
2022/03/17 00:51:29;;;;;;;;;;;;;;;15.72;55.30;101509.72;1012901;29;640;-72
2022/03/17 00:52:20;;;;;;;;;;;;;;;15.71;55.31;101497.25;1012462;29;612;-72
2022/03/17 00:53:10;;;;;;;;;;;;;;;15.73;54.84;101500.69;1012913;29;648;-71
2022/03/17 00:54:01;;;;;;;;;;;;;;;15.71;54.88;101497.25;1012822;29;885;-72
2022/03/17 00:54:51;;;;;;;;;;;;;;;15.71;54.84;101497.25;1012833;29;640;-71
2022/03/17 00:55:41;;;;;;;;;;;;;;;15.70;54.91;101496.41;1012654;29;616;-71
2022/03/17 00:56:32;;;;;;;;;;;;;;;15.71;55.12;101497.25;1012975;29;711;-71
2022/03/17 00:57:22;;;;;;;;;;;;;;;15.71;55.26;101494.56;1013105;29;673;-71
2022/03/17 00:58:13;;;;;;;;;;;;;;;15.72;55.35;101504.34;1012780;29;627;-72
2022/03/17 00:59:03;;;;;;;;;;;;;;;15.71;55.24;101499.94;1012812;29;631;-71
2022/03/17 00:59:54;;;;;;;;;;;;;;;15.71;55.28;101497.25;1009399;29;627;-71
2022/03/17 01:00:44;;;;;;;;;;;;;;;15.70;55.14;101493.72;1009407;29;652;-71
2022/03/17 01:01:35;;;;;;;;;;;;;;;15.71;55.07;101498.13;1012529;29;1656;-70
2022/03/17 01:02:25;;;;;;;;;;;;;;;15.70;54.97;101496.41;1012827;29;675;-71
2022/03/17 01:03:15;;;;;;;;;;;;;;;15.70;55.31;101482.09;1013019;29;710;-71
2022/03/17 01:04:06;;;;;;;;;;;;;;;15.70;55.53;101490.16;1012432;29;671;-70
2022/03/17 01:04:57;;;;;;;;;;;;;;;15.71;55.34;101497.25;1012331;29;1623;-71
2022/03/17 01:05:47;;;;;;;;;;;;;;;15.70;55.47;101484.78;1012286;29;1894;-71
2022/03/17 01:06:38;;;;;;;;;;;;;;;15.69;55.27;101488.44;1012601;29;628;-70
2022/03/17 01:07:28;;;;;;;;;;;;;;;15.69;55.28;101488.44;1012817;29;667;-70
2022/03/17 01:08:18;;;;;;;;;;;;;;;15.70;55.11;101498.22;1008967;29;1208;-70
2022/03/17 01:09:09;;;;;;;;;;;;;;;15.70;55.32;101490.16;1009985;29;639;-71
2022/03/17 01:09:59;;;;;;;;;;;;;;;15.70;55.60;101491.03;1009305;29;675;-71
2022/03/17 01:10:50;;;;;;;;;;;;;;;15.69;55.13;101492.00;1009578;29;683;-71
2022/03/17 01:11:40;;;;;;;;;;;;;;;15.69;55.33;101481.25;1009719;29;718;-72
2022/03/17 01:12:30;;;;;;;;;;;;;;;15.67;55.41;101477.81;1009874;29;667;-71
2022/03/17 01:13:21;;;;;;;;;;;;;;;15.70;55.20;101482.09;1009846;29;683;-71
2022/03/17 01:14:13;;;;;;;;;;;;;;;15.70;55.29;101487.47;1009639;29;734;-71
2022/03/17 01:15:03;;;;;;;;;;;;;;;15.69;55.22;101489.31;1009595;29;683;-70
2022/03/17 01:15:54;;;;;;;;;;;;;;;15.69;55.33;101491.13;1009930;29;679;-71
2022/03/17 01:16:44;;;;;;;;;;;;;;;15.68;55.20;101484.91;1009876;29;663;-71
2022/03/17 01:17:35;;;;;;;;;;;;;;;15.69;55.29;101488.44;1009738;29;656;-70
2022/03/17 01:18:25;;;;;;;;;;;;;;;15.69;55.13;101488.44;1009910;29;690;-70
2022/03/17 01:19:17;;;;;;;;;;;;;;;15.69;54.99;101488.44;1011863;29;1608;-70
2022/03/17 01:20:07;;;;;;;;;;;;;;;15.68;55.17;101481.38;1012285;29;679;-70
2022/03/17 01:20:57;;;;;;;;;;;;;;;15.69;55.35;101493.81;1012644;29;656;-70
2022/03/17 01:21:48;;;;;;;;;;;;;;;15.68;55.30;101498.34;1012611;29;705;-70
2022/03/17 01:22:38;;;;;;;;;;;;;;;15.68;55.27;101492.97;1012795;29;688;-70
2022/03/17 01:23:29;;;;;;;;;;;;;;;15.68;55.48;101492.13;1012588;29;635;-71
2022/03/17 01:24:20;;;;;;;;;;;;;;;15.67;55.35;101493.94;1012781;29;647;-70
2022/03/17 01:25:10;;;;;;;;;;;;;;;15.68;55.41;101486.75;1012850;29;643;-70
2022/03/17 01:26:01;;;;;;;;;;;;;;;15.67;55.51;101490.41;1012517;29;1982;-70
2022/03/17 01:26:51;;;;;;;;;;;;;;;15.68;55.54;101486.75;1012717;29;663;-70
2022/03/17 01:27:42;;;;;;;;;;;;;;;15.68;55.35;101486.75;1012559;29;643;-70
2022/03/17 01:28:32;;;;;;;;;;;;;;;15.67;55.70;101490.41;1012771;29;825;-70
2022/03/17 01:29:23;;;;;;;;;;;;;;;15.66;55.33;101483.31;1013163;29;697;-70
2022/03/17 01:30:13;;;;;;;;;;;;;;;15.66;55.37;101489.53;1013155;29;670;-70
2022/03/17 01:31:04;;;;;;;;;;;;;;;15.67;55.59;101491.25;1012620;29;596;-70
2022/03/17 01:31:54;;;;;;;;;;;;;;;15.66;55.70;101488.69;1012743;29;698;-70
2022/03/17 01:32:45;;;;;;;;;;;;;;;15.67;55.21;101490.41;1012656;29;633;-70
2022/03/17 01:33:35;;;;;;;;;;;;;;;15.66;55.72;101488.69;1012723;29;710;-71
2022/03/17 01:34:25;;;;;;;;;;;;;;;15.65;55.19;101481.59;1013077;29;785;-71
2022/03/17 01:35:16;;;;;;;;;;;;;;;15.66;55.49;101491.38;1012630;29;612;-70
2022/03/17 01:36:06;;;;;;;;;;;;;;;15.66;55.73;101486.00;1012724;29;793;-70
2022/03/17 01:36:57;;;;;;;;;;;;;;;15.65;55.32;101486.97;1012515;29;706;-70
2022/03/17 01:37:47;;;;;;;;;;;;;;;15.65;55.42;101490.50;1012626;29;687;-70
2022/03/17 01:38:38;;;;;;;;;;;;;;;15.65;55.36;101492.34;1012499;29;656;-70
2022/03/17 01:39:28;;;;;;;;;;;;;;;15.65;55.29;101493.19;1009342;29;627;-72
2022/03/17 01:40:18;;;;;;;;;;;;;;;15.66;55.57;101488.69;1012736;29;659;-71
2022/03/17 01:41:09;;;;;;;;;;;;;;;15.65;55.51;101485.13;1012843;29;642;-71
2022/03/17 01:41:59;;;;;;;;;;;;;;;15.65;55.22;101484.28;1009346;29;690;-70
2022/03/17 01:42:50;;;;;;;;;;;;;;;15.66;55.21;101488.69;1009767;29;604;-71
2022/03/17 01:43:40;;;;;;;;;;;;;;;15.64;55.44;101480.72;1009268;29;655;-71
2022/03/17 01:44:31;;;;;;;;;;;;;;;15.65;55.25;101476.22;1009157;29;640;-71
2022/03/17 01:45:21;;;;;;;;;;;;;;;15.65;55.88;101489.66;1009314;29;798;-71
2022/03/17 01:46:14;;;;;;;;;;;;;;;15.63;55.47;101477.19;1009820;29;572;-71
2022/03/17 01:48:13;;;;;;;;;;;;;;;15.65;55.44;101481.59;1013714;29;619;-71
2022/03/17 01:49:04;;;;;;;;;;;;;;;15.64;55.87;101483.41;1012047;29;655;-71
2022/03/17 01:49:54;;;;;;;;;;;;;;;15.63;55.82;101479.88;1012634;29;666;-71
2022/03/17 01:50:44;;;;;;;;;;;;;;;15.65;55.63;101492.34;1012370;29;675;-71
2022/03/17 01:51:35;;;;;;;;;;;;;;;15.63;55.65;101479.88;1012554;29;616;-73
2022/03/17 01:52:25;;;;;;;;;;;;;;;15.65;55.68;101484.28;1012609;29;608;-74
2022/03/17 01:53:16;;;;;;;;;;;;;;;15.64;55.31;101486.09;1012514;29;626;-73
2022/03/17 01:54:06;;;;;;;;;;;;;;;15.64;55.69;101486.09;1013044;29;698;-73
2022/03/17 01:54:56;;;;;;;;;;;;;;;15.63;55.84;101484.38;1012305;29;647;-73
2022/03/17 01:55:47;;;;;;;;;;;;;;;15.63;55.66;101487.94;1012471;29;620;-73
2022/03/17 01:56:37;;;;;;;;;;;;;;;15.62;55.80;101488.91;1012619;29;667;-73
2022/03/17 01:57:28;;;;;;;;;;;;;;;15.63;55.54;101482.56;1012397;29;667;-73
2022/03/17 01:58:18;;;;;;;;;;;;;;;15.63;55.41;101487.06;1012575;29;742;-73
2022/03/17 01:59:08;;;;;;;;;;;;;;;15.62;55.85;101494.28;1009077;29;629;-73
2022/03/17 01:59:59;;;;;;;;;;;;;;;15.63;56.05;101496.00;1009626;29;643;-73
2022/03/17 02:00:50;;;;;;;;;;;;;;;15.63;55.96;101496.00;1010226;29;615;-73
2022/03/17 02:01:40;;;;;;;;;;;;;;;15.62;55.77;101496.97;1008772;29;671;-73
2022/03/17 02:02:31;;;;;;;;;;;;;;;15.63;55.63;101497.81;1010239;29;667;-73
2022/03/17 02:03:21;;;;;;;;;;;;;;;15.63;56.08;101497.81;1010136;29;645;-73
2022/03/17 02:04:12;;;;;;;;;;;;;;;15.61;55.87;101497.94;1009646;29;749;-73
2022/03/17 02:05:03;;;;;;;;;;;;;;;15.62;56.09;101499.66;1009326;29;627;-73
2022/03/17 02:05:54;;;;;;;;;;;;;;;15.63;55.84;101495.13;1008748;29;1891;-73
2022/03/17 02:06:44;;;;;;;;;;;;;;;15.62;55.58;101496.97;1008559;29;1150;-72
2022/03/17 02:07:34;;;;;;;;;;;;;;;15.61;56.18;101500.63;1010106;29;616;-73
2022/03/17 02:08:29;;;;;;;;;;;;;;;15.62;55.61;101499.66;1013532;29;642;-72
2022/03/17 02:09:19;;;;;;;;;;;;;;;15.61;56.24;101503.31;1012983;29;635;-73
2022/03/17 02:10:09;;;;;;;;;;;;;;;15.61;55.55;101494.41;1012919;29;699;-72
2022/03/17 02:13:18;;;;;;;;;;;;;;;15.61;56.13;101503.31;1013106;29;624;-73
2022/03/17 02:14:09;;;;;;;;;;;;;;;15.60;55.54;101501.59;1012922;29;650;-73
2022/03/17 02:14:59;;;;;;;;;;;;;;;15.62;56.01;101506.84;1012942;29;620;-72
2022/03/17 02:15:50;;;;;;;;;;;;;;;15.61;55.81;101518.56;1012908;29;686;-72
2022/03/17 02:16:42;;;;;;;;;;;;;;;15.62;55.67;101509.53;1013477;29;740;-72
2022/03/17 02:17:33;;;;;;;;;;;;;;;15.60;56.15;101515.03;1012851;29;624;-73
2022/03/17 02:18:23;;;;;;;;;;;;;;;15.60;55.92;101512.34;1011982;29;1678;-72
2022/03/17 02:19:13;;;;;;;;;;;;;;;15.61;55.85;101516.75;1012317;29;707;-73
2022/03/17 02:20:04;;;;;;;;;;;;;;;15.61;55.84;101521.25;1012401;29;679;-72
2022/03/17 02:20:59;;;;;;;;;;;;;;;15.61;55.98;101519.44;1013129;29;2001;-73
2022/03/17 02:21:49;;;;;;;;;;;;;;;15.60;55.81;101517.72;1012471;29;771;-73
2022/03/17 02:22:40;;;;;;;;;;;;;;;15.60;56.12;101515.03;1012344;29;679;-73
2022/03/17 02:25:49;;;;;;;;;;;;;;;15.62;55.92;101514.91;1012821;29;1915;-74
2022/03/17 02:26:39;;;;;;;;;;;;;;;15.60;55.91;101517.72;1012557;29;726;-74
2022/03/17 02:27:30;;;;;;;;;;;;;;;15.60;55.76;101522.22;1012389;29;687;-74
2022/03/17 02:28:20;;;;;;;;;;;;;;;15.61;56.27;101523.94;1012948;29;722;-74
2022/03/17 02:29:11;;;;;;;;;;;;;;;15.60;55.79;101517.72;1012383;29;854;-74
2022/03/17 02:30:03;;;;;;;;;;;;;;;15.60;55.85;101517.72;1012414;29;636;-74
2022/03/17 02:30:54;;;;;;;;;;;;;;;15.60;55.87;101522.22;1012346;29;769;-74
2022/03/17 02:31:44;;;;;;;;;;;;;;;15.60;56.13;101523.09;1012496;29;628;-73
2022/03/17 02:32:34;;;;;;;;;;;;;;;15.60;55.83;101514.16;1012243;29;714;-70
2022/03/17 02:33:25;;;;;;;;;;;;;;;15.60;56.03;101512.34;1012028;29;647;-71
2022/03/17 02:34:16;;;;;;;;;;;;;;;15.60;55.99;101523.09;1012409;29;695;-71
2022/03/17 02:35:06;;;;;;;;;;;;;;;15.59;56.19;101532.13;1012469;29;745;-71
2022/03/17 02:35:57;;;;;;;;;;;;;;;15.59;55.89;101526.75;1012805;29;686;-71
2022/03/17 02:36:48;;;;;;;;;;;;;;;15.60;55.98;101530.28;1012406;29;643;-71
2022/03/17 02:37:38;;;;;;;;;;;;;;;15.59;55.77;101524.06;1012446;29;734;-71
2022/03/17 02:38:29;;;;;;;;;;;;;;;15.60;56.21;101519.53;1012237;29;675;-71
2022/03/17 02:39:19;;;;;;;;;;;;;;;15.58;55.80;101522.38;1012475;29;707;-71
2022/03/17 02:40:10;;;;;;;;;;;;;;;15.59;55.84;101528.56;1012214;29;719;-73
2022/03/17 02:41:00;;;;;;;;;;;;;;;15.59;55.90;101526.75;1012322;29;655;-73
2022/03/17 02:41:50;;;;;;;;;;;;;;;15.58;56.30;101522.38;1012543;29;628;-71
2022/03/17 02:42:41;;;;;;;;;;;;;;;15.58;55.99;101527.75;1012328;29;714;-70
2022/03/17 02:43:32;;;;;;;;;;;;;;;15.58;56.19;101530.44;1012979;29;688;-72
2022/03/17 02:44:22;;;;;;;;;;;;;;;15.59;56.50;101533.94;1012462;29;668;-71
2022/03/17 02:45:13;;;;;;;;;;;;;;;15.59;56.34;101536.63;1009363;29;1500;-71
2022/03/17 02:46:03;;;;;;;;;;;;;;;15.58;55.90;101529.56;1009474;29;1863;-74
2022/03/17 02:46:54;;;;;;;;;;;;;;;15.57;56.14;101542.16;1009550;29;699;-72
2022/03/17 02:47:44;;;;;;;;;;;;;;;15.58;56.29;101541.19;1009558;29;725;-71
2022/03/17 02:48:35;;;;;;;;;;;;;;;15.58;56.35;101540.31;1009540;29;738;-74
2022/03/17 02:49:26;;;;;;;;;;;;;;;15.58;56.22;101541.19;1009553;29;710;-75
2022/03/17 02:50:17;;;;;;;;;;;;;;;15.56;56.29;101543.13;1009541;29;683;-73
2022/03/17 02:51:08;;;;;;;;;;;;;;;15.58;56.24;101540.31;1009481;29;652;-75
2022/03/17 02:51:58;;;;;;;;;;;;;;;15.58;56.02;101551.06;1009511;29;656;-73
2022/03/17 02:52:49;;;;;;;;;;;;;;;15.57;56.10;101546.66;1009586;29;715;-73
2022/03/17 02:53:39;;;;;;;;;;;;;;;15.58;56.28;101551.94;1009588;29;671;-73
2022/03/17 02:54:30;;;;;;;;;;;;;;;15.59;56.35;101561.66;1009569;29;722;-73
2022/03/17 02:55:20;;;;;;;;;;;;;;;15.58;56.26;101572.56;1009437;29;636;-73
2022/03/17 02:56:10;;;;;;;;;;;;;;;15.58;56.26;101584.16;1009526;29;667;-75
2022/03/17 02:57:01;;;;;;;;;;;;;;;15.57;56.33;101577.09;1009439;29;699;-76
2022/03/17 02:57:51;;;;;;;;;;;;;;;15.57;56.10;101574.38;1009516;29;659;-75
2022/03/17 02:58:42;;;;;;;;;;;;;;;15.57;56.08;101595.88;1009526;29;663;-76
2022/03/17 02:59:32;;;;;;;;;;;;;;;15.57;55.92;101592.34;1009472;29;627;-75
2022/03/17 03:00:23;;;;;;;;;;;;;;;15.57;56.44;101587.81;1010041;29;663;-77
2022/03/17 03:01:13;;;;;;;;;;;;;;;15.56;56.17;101591.47;1009534;29;667;-77
2022/03/17 03:02:04;;;;;;;;;;;;;;;15.56;56.47;101586.09;1009192;29;702;-78
2022/03/17 03:02:55;;;;;;;;;;;;;;;15.56;56.30;101583.41;1009242;29;655;-78
2022/03/17 03:03:45;;;;;;;;;;;;;;;15.56;56.43;101590.63;1009412;29;628;-78
2022/03/17 03:04:36;;;;;;;;;;;;;;;15.57;56.66;101590.50;1009493;29;683;-78
2022/03/17 03:05:26;;;;;;;;;;;;;;;15.57;56.19;101598.56;1009401;29;925;-77
2022/03/17 03:06:17;;;;;;;;;;;;;;;15.55;56.35;101597.81;1009443;29;648;-77
2022/03/17 03:07:07;;;;;;;;;;;;;;;15.56;56.65;101606.75;1009289;29;1123;-78
2022/03/17 03:07:58;;;;;;;;;;;;;;;15.56;56.38;101607.59;1010219;29;1235;-78
2022/03/17 03:08:48;;;;;;;;;;;;;;;15.55;56.37;101607.69;1012810;29;631;-78
2022/03/17 03:09:38;;;;;;;;;;;;;;;15.55;56.66;101613.06;1012953;29;719;-79
2022/03/17 03:10:29;;;;;;;;;;;;;;;15.56;56.22;101612.97;1012742;29;694;-79
2022/03/17 03:11:19;;;;;;;;;;;;;;;15.56;56.22;101610.28;1012902;29;738;-79
2022/03/17 03:12:10;;;;;;;;;;;;;;;15.56;56.41;101612.13;1012938;29;800;-79
2022/03/17 03:13:00;;;;;;;;;;;;;;;15.56;56.11;101612.13;1012759;29;1608;-79
2022/03/17 03:13:50;;;;;;;;;;;;;;;15.55;56.15;101619.31;1012377;29;627;-80
2022/03/17 03:14:41;;;;;;;;;;;;;;;15.55;56.29;101627.38;1012835;29;639;-79
2022/03/17 03:15:31;;;;;;;;;;;;;;;15.55;56.16;101626.47;1012402;29;659;-79
2022/03/17 03:16:22;;;;;;;;;;;;;;;15.55;56.26;101626.47;1011668;29;624;-79
2022/03/17 03:17:12;;;;;;;;;;;;;;;15.55;56.35;101631.84;1012329;29;662;-79
2022/03/17 03:18:02;;;;;;;;;;;;;;;15.54;56.34;101636.38;1012328;29;701;-79
2022/03/17 03:18:53;;;;;;;;;;;;;;;15.55;56.50;101640.81;1012193;29;659;-80
2022/03/17 03:19:43;;;;;;;;;;;;;;;15.54;56.18;101641.75;1012390;29;655;-79
2022/03/17 03:20:34;;;;;;;;;;;;;;;15.55;56.47;101642.59;1012201;29;635;-79
2022/03/17 03:21:24;;;;;;;;;;;;;;;15.55;56.50;101647.97;1012277;29;670;-80
2022/03/17 03:22:15;;;;;;;;;;;;;;;15.54;56.76;101641.75;1012373;29;648;-79
2022/03/17 03:23:05;;;;;;;;;;;;;;;15.54;56.60;101652.50;1012174;29;690;-79
2022/03/17 03:23:55;;;;;;;;;;;;;;;15.53;56.75;101656.16;1012341;29;695;-79
2022/03/17 03:24:46;;;;;;;;;;;;;;;15.53;56.33;101658.84;1012144;29;636;-80
2022/03/17 03:25:36;;;;;;;;;;;;;;;15.53;56.75;101658.84;1012273;29;657;-79
2022/03/17 03:26:27;;;;;;;;;;;;;;;15.53;56.48;101663.34;1012653;29;745;-79
2022/03/17 03:27:17;;;;;;;;;;;;;;;15.53;56.70;101666.88;1012458;29;655;-78
2022/03/17 03:28:07;;;;;;;;;;;;;;;15.54;56.72;101662.38;1012134;29;652;-79
2022/03/17 03:28:58;;;;;;;;;;;;;;;15.53;56.29;101676.78;1012226;29;687;-78
2022/03/17 03:29:48;;;;;;;;;;;;;;;15.53;56.54;101680.31;1012300;29;723;-78
2022/03/17 03:30:39;;;;;;;;;;;;;;;15.52;56.16;101686.66;1012234;29;694;-78
2022/03/17 03:31:29;;;;;;;;;;;;;;;15.53;56.46;101683.00;1012230;29;695;-78
2022/03/17 03:32:19;;;;;;;;;;;;;;;15.53;56.73;101683.00;1012273;29;663;-79
2022/03/17 03:33:10;;;;;;;;;;;;;;;15.52;56.52;101683.97;1011744;29;687;-79
2022/03/17 03:34:00;;;;;;;;;;;;;;;15.52;56.61;101696.56;1012272;29;639;-78
2022/03/17 03:34:51;;;;;;;;;;;;;;;15.52;56.16;101699.22;1012639;29;746;-78
2022/03/17 03:38:00;;;;;;;;;;;;;;;15.52;56.53;101701.91;1012618;29;691;-79
2022/03/17 03:38:50;;;;;;;;;;;;;;;15.51;56.51;101701.06;1012216;29;648;-79
2022/03/17 03:39:41;;;;;;;;;;;;;;;15.51;56.56;101708.25;1012120;29;718;-79
2022/03/17 03:40:31;;;;;;;;;;;;;;;15.51;56.54;101705.56;1012225;29;660;-80
2022/03/17 03:41:22;;;;;;;;;;;;;;;15.51;56.44;101705.56;1012463;29;695;-79
2022/03/17 03:42:12;;;;;;;;;;;;;;;15.51;56.07;101705.56;1011815;29;536;-79
2022/03/17 03:43:02;;;;;;;;;;;;;;;15.50;56.42;101712.78;1008694;29;1466;-79
2022/03/17 03:43:53;;;;;;;;;;;;;;;15.50;56.60;101718.16;1008811;29;662;-79
2022/03/17 03:44:43;;;;;;;;;;;;;;;15.49;56.27;101724.50;1009994;29;1639;-80
2022/03/17 03:45:34;;;;;;;;;;;;;;;15.49;56.69;101720.94;1008747;29;652;-79
2022/03/17 03:46:24;;;;;;;;;;;;;;;15.48;56.79;101728.13;1008933;29;753;-78
2022/03/17 03:47:15;;;;;;;;;;;;;;;15.48;56.56;101736.19;1008910;29;933;-79
2022/03/17 03:48:05;;;;;;;;;;;;;;;15.49;56.71;101735.22;1008833;29;633;-73
2022/03/17 03:48:55;;;;;;;;;;;;;;;15.49;56.31;101735.22;1008936;29;695;-73
2022/03/17 03:49:46;;;;;;;;;;;;;;;15.49;56.41;101740.59;1008768;29;715;-71
2022/03/17 03:50:37;;;;;;;;;;;;;;;15.50;56.36;101745.00;1008880;29;683;-71
2022/03/17 03:51:27;;;;;;;;;;;;;;;15.48;56.21;101744.25;1008254;29;636;-71
2022/03/17 03:52:18;;;;;;;;;;;;;;;15.49;56.62;101745.13;1008920;29;715;-71
2022/03/17 03:53:08;;;;;;;;;;;;;;;15.49;56.28;101755.88;1008835;29;699;-72
2022/03/17 03:54:14;;;;;;;;;;;;;;;15.48;56.49;101743.41;1008835;29;692;-72
2022/03/17 03:55:04;;;;;;;;;;;;;;;15.47;56.50;101747.06;1009148;29;639;-72
2022/03/17 03:55:54;;;;;;;;;;;;;;;15.48;56.72;101754.16;1008557;29;714;-71
2022/03/17 03:56:45;;;;;;;;;;;;;;;15.46;56.40;101746.19;1008900;29;710;-71
2022/03/17 03:57:35;;;;;;;;;;;;;;;15.47;56.44;101758.66;1008883;29;668;-71
2022/03/17 03:58:26;;;;;;;;;;;;;;;15.46;56.46;101761.44;1009052;29;651;-72
2022/03/17 03:59:20;;;;;;;;;;;;;;;15.46;56.24;101756.94;1008562;29;687;-72
2022/03/17 04:01:13;;;;;;;;;;;;;;;15.45;56.28;101765.97;1009353;29;643;-72
2022/03/17 04:02:03;;;;;;;;;;;;;;;15.45;56.30;101768.66;1008768;29;640;-72
2022/03/17 04:02:56;;;;;;;;;;;;;;;15.45;56.31;101770.47;1008799;29;675;-72
2022/03/17 04:03:46;;;;;;;;;;;;;;;15.45;56.54;101775.84;1008541;29;663;-72
2022/03/17 04:04:36;;;;;;;;;;;;;;;15.45;56.10;101787.44;1008533;29;723;-72
2022/03/17 04:05:37;;;;;;;;;;;;;;;15.45;56.57;101781.22;1008760;29;699;-73
2022/03/17 04:06:27;;;;;;;;;;;;;;;15.45;56.72;101786.59;1008435;29;667;-73
2022/03/17 04:07:18;;;;;;;;;;;;;;;15.45;56.51;101789.28;1008761;29;687;-73
2022/03/17 04:08:08;;;;;;;;;;;;;;;15.43;56.37;101793.88;1011137;29;1205;-74
2022/03/17 04:08:59;;;;;;;;;;;;;;;15.43;56.31;101791.22;1012920;29;762;-73
2022/03/17 04:09:49;;;;;;;;;;;;;;;15.45;56.50;101805.41;1013024;29;710;-73
2022/03/17 04:10:40;;;;;;;;;;;;;;;15.44;56.20;101803.66;1011695;29;636;-73
2022/03/17 04:11:30;;;;;;;;;;;;;;;15.44;56.06;101801.84;1013173;29;646;-73
2022/03/17 04:12:21;;;;;;;;;;;;;;;15.44;56.77;101803.66;1013169;29;718;-72
2022/03/17 04:13:11;;;;;;;;;;;;;;;15.43;56.12;101808.19;1009630;29;632;-73
2022/03/17 04:14:01;;;;;;;;;;;;;;;15.42;56.74;101809.16;1007654;29;671;-71
2022/03/17 04:14:52;;;;;;;;;;;;;;;15.43;56.48;101820.75;1007660;29;696;-71
2022/03/17 04:15:42;;;;;;;;;;;;;;;15.42;56.53;101813.66;1008755;29;636;-71
2022/03/17 04:16:33;;;;;;;;;;;;;;;15.42;56.64;101816.34;1009727;29;670;-71
2022/03/17 04:17:23;;;;;;;;;;;;;;;15.42;56.18;101817.22;1009847;29;627;-72
2022/03/17 04:18:14;;;;;;;;;;;;;;;15.41;56.71;101818.16;1008867;29;627;-72
2022/03/17 04:19:04;;;;;;;;;;;;;;;15.41;56.27;101820.00;1008774;29;666;-72
2022/03/17 04:19:54;;;;;;;;;;;;;;;15.41;56.20;101834.28;1009807;29;727;-72
2022/03/17 04:20:45;;;;;;;;;;;;;;;15.41;56.09;101828.06;1009901;29;651;-72
2022/03/17 04:21:35;;;;;;;;;;;;;;;15.41;56.26;101833.44;1009905;29;666;-72
2022/03/17 04:22:26;;;;;;;;;;;;;;;15.40;56.14;101826.38;1009338;29;730;-72
2022/03/17 04:23:16;;;;;;;;;;;;;;;15.39;56.41;101838.94;1009849;29;679;-72
2022/03/17 04:24:06;;;;;;;;;;;;;;;15.38;56.46;101837.22;1008609;29;671;-72
2022/03/17 04:24:57;;;;;;;;;;;;;;;15.38;56.08;101834.53;1008967;29;715;-72
2022/03/17 04:25:47;;;;;;;;;;;;;;;15.39;56.26;101844.31;1009266;29;1915;-72
2022/03/17 04:26:38;;;;;;;;;;;;;;;15.38;55.98;101834.53;1009899;29;702;-72
2022/03/17 04:27:28;;;;;;;;;;;;;;;15.39;56.17;101840.75;1008578;29;636;-73
2022/03/17 04:28:19;;;;;;;;;;;;;;;15.38;56.62;101856.00;1005229;29;726;-73
2022/03/17 04:29:10;;;;;;;;;;;;;;;15.36;56.55;101847.19;1008823;29;640;-73
2022/03/17 04:30:00;;;;;;;;;;;;;;;15.37;56.19;101842.69;1008737;29;672;-73
2022/03/17 04:30:50;;;;;;;;;;;;;;;15.38;56.66;101844.41;1009809;29;710;-74
2022/03/17 04:31:41;;;;;;;;;;;;;;;15.37;56.14;101853.44;1009859;29;651;-74
2022/03/17 04:32:31;;;;;;;;;;;;;;;15.37;56.28;101848.06;1009835;29;679;-72
2022/03/17 04:33:22;;;;;;;;;;;;;;;15.38;56.01;101855.16;1009799;29;639;-72
2022/03/17 04:34:12;;;;;;;;;;;;;;;15.37;56.15;101853.44;1009841;29;628;-72
2022/03/17 04:35:02;;;;;;;;;;;;;;;15.37;56.53;101851.59;1009328;29;639;-73
2022/03/17 04:35:53;;;;;;;;;;;;;;;15.37;56.26;101854.28;1009903;29;706;-72
2022/03/17 04:36:43;;;;;;;;;;;;;;;15.37;56.31;101856.13;1009755;29;833;-72